createdAt,value
2022-10-28T00:01:17.251Z,101757.00
2022-10-28T00:03:48.021Z,101750.00
2022-10-28T00:06:19.790Z,101762.00
2022-10-28T00:08:47.672Z,101756.00
2022-10-28T00:11:21.959Z,101761.00
2022-10-28T00:13:50.872Z,101760.00
2022-10-28T00:16:25.178Z,101752.00
2022-10-28T00:18:54.060Z,101752.00
2022-10-28T00:21:29.653Z,101764.00
2022-10-28T00:23:57.549Z,101764.00
2022-10-28T00:26:38.914Z,101762.00
2022-10-28T00:29:09.785Z,101767.00
2022-10-28T00:31:38.341Z,101767.00
2022-10-28T00:34:09.852Z,101762.00
2022-10-28T00:36:40.551Z,101758.00
2022-10-28T00:39:17.150Z,101765.00
2022-10-28T00:41:48.588Z,101755.00
2022-10-28T00:44:49.820Z,101760.00
2022-10-28T00:47:55.762Z,101755.00
2022-10-28T00:50:53.834Z,101749.00
2022-10-28T00:53:31.091Z,101746.00
2022-10-28T00:56:01.994Z,101746.00
2022-10-28T00:58:30.162Z,101746.00
2022-10-28T01:00:57.101Z,101739.00
2022-10-28T01:03:24.026Z,101746.00
2022-10-28T01:05:52.094Z,101739.00
2022-10-28T01:08:19.330Z,101735.00
2022-10-28T01:10:57.553Z,101737.00
2022-10-28T01:13:48.641Z,101741.00
2022-10-28T01:17:03.606Z,101738.00
2022-10-28T01:20:17.434Z,101739.00
2022-10-28T01:23:12.643Z,101752.00
2022-10-28T01:26:23.675Z,101730.00
2022-10-28T01:29:08.827Z,101731.00
2022-10-28T01:31:50.987Z,101730.00
2022-10-28T01:34:42.894Z,101728.00
2022-10-28T01:37:31.301Z,101726.00
2022-10-28T01:40:29.534Z,101719.00
2022-10-28T01:43:10.565Z,101715.00
2022-10-28T01:45:49.642Z,101727.00
2022-10-28T01:48:25.443Z,101721.00
2022-10-28T01:51:27.790Z,101709.00
2022-10-28T01:53:58.554Z,101701.00
2022-10-28T01:56:33.101Z,101704.00
2022-10-28T01:59:03.286Z,101708.00
2022-10-28T02:01:31.794Z,101717.00
2022-10-28T02:03:59.068Z,101703.00
2022-10-28T02:06:32.280Z,101699.00
2022-10-28T02:09:19.145Z,101702.00
2022-10-28T02:11:56.603Z,101698.00
2022-10-28T02:14:38.951Z,101702.00
2022-10-28T02:17:54.744Z,101692.00
2022-10-28T02:20:51.226Z,101691.00
2022-10-28T02:23:50.940Z,101688.00
2022-10-28T02:26:40.871Z,101685.00
2022-10-28T02:29:43.671Z,101692.00
2022-10-28T02:32:19.835Z,101692.00
2022-10-28T02:34:52.623Z,101687.00
2022-10-28T02:37:29.728Z,101693.00
2022-10-28T02:40:03.769Z,101701.00
2022-10-28T02:42:37.366Z,101703.00
2022-10-28T02:45:21.137Z,101708.00
2022-10-28T02:48:09.150Z,101693.00
2022-10-28T02:50:42.126Z,101692.00
2022-10-28T02:53:28.753Z,101688.00
2022-10-28T02:56:00.152Z,101694.00
2022-10-28T02:58:27.348Z,101689.00
2022-10-28T03:00:54.154Z,101682.00
2022-10-28T03:03:21.070Z,101694.00
2022-10-28T03:05:47.773Z,101688.00
2022-10-28T03:08:14.561Z,101695.00
2022-10-28T03:10:41.364Z,101702.00
2022-10-28T03:13:08.098Z,101690.00
2022-10-28T03:15:34.855Z,101681.00
2022-10-28T03:18:01.615Z,101689.00
2022-10-28T03:20:28.337Z,101671.00
2022-10-28T03:22:55.454Z,101691.00
2022-10-28T03:25:22.459Z,101676.00
2022-10-28T03:27:49.204Z,101679.00
2022-10-28T03:30:18.406Z,101674.00
2022-10-28T03:32:45.173Z,101672.00
2022-10-28T03:35:12.320Z,101673.00
2022-10-28T03:37:43.707Z,101670.00
2022-10-28T03:40:12.133Z,101675.00
2022-10-28T03:42:41.820Z,101680.00
2022-10-28T03:45:10.640Z,101691.00
2022-10-28T03:47:37.646Z,101697.00
2022-10-28T03:50:04.676Z,101691.00
2022-10-28T03:52:32.240Z,101704.00
2022-10-28T03:54:59.069Z,101690.00
2022-10-28T03:57:25.799Z,101692.00
2022-10-28T03:59:52.517Z,101690.00
2022-10-28T04:02:19.603Z,101685.00
2022-10-28T04:04:46.377Z,101676.00
2022-10-28T04:07:13.881Z,101685.00
2022-10-28T04:09:42.671Z,101678.00
2022-10-28T04:12:11.154Z,101679.00
2022-10-28T04:14:38.094Z,101676.00
2022-10-28T04:17:04.818Z,101684.00
2022-10-28T04:19:31.558Z,101672.00
2022-10-28T04:21:58.287Z,101674.00
2022-10-28T04:24:25.007Z,101674.00
2022-10-28T04:26:51.799Z,101680.00
2022-10-28T04:29:19.341Z,101678.00
2022-10-28T04:31:48.677Z,101691.00
2022-10-28T04:34:18.223Z,101674.00
2022-10-28T04:36:45.043Z,101675.00
2022-10-28T04:39:11.881Z,101675.00
2022-10-28T04:41:38.640Z,101660.00
2022-10-28T04:44:05.478Z,101674.00
2022-10-28T04:46:32.175Z,101670.00
2022-10-28T04:48:59.113Z,101658.00
2022-10-28T04:51:25.883Z,101669.00
2022-10-28T04:53:52.613Z,101666.00
2022-10-28T04:56:19.375Z,101660.00
2022-10-28T04:58:49.073Z,101658.00
2022-10-28T05:01:16.074Z,101652.00
2022-10-28T05:03:42.898Z,101659.00
2022-10-28T05:06:09.722Z,101656.00
2022-10-28T05:08:36.437Z,101658.00
2022-10-28T05:11:03.196Z,101667.00
2022-10-28T05:13:29.975Z,101663.00
2022-10-28T05:15:56.691Z,101640.00
2022-10-28T05:18:23.405Z,101641.00
2022-10-28T05:20:54.706Z,101651.00
2022-10-28T05:23:25.803Z,101645.00
2022-10-28T05:25:55.394Z,101649.00
2022-10-28T05:28:22.180Z,101654.00
2022-10-28T05:30:48.898Z,101650.00
2022-10-28T05:33:15.614Z,101640.00
2022-10-28T05:35:42.586Z,101649.00
2022-10-28T05:38:09.501Z,101659.00
2022-10-28T05:40:36.578Z,101641.00
2022-10-28T05:43:03.959Z,101645.00
2022-10-28T05:45:30.767Z,101640.00
2022-10-28T05:47:58.216Z,101648.00
2022-10-28T05:50:25.085Z,101638.00
2022-10-28T05:52:55.043Z,101642.00
2022-10-28T05:55:25.104Z,101640.00
2022-10-28T05:57:53.080Z,101643.00
2022-10-28T06:00:23.852Z,101633.00
2022-10-28T06:02:51.530Z,101631.00
2022-10-28T06:05:18.569Z,101637.00
2022-10-28T06:07:45.343Z,101639.00
2022-10-28T06:10:12.342Z,101633.00
2022-10-28T06:12:37.986Z,101636.00
2022-10-28T06:15:05.572Z,101639.00
2022-10-28T06:17:32.435Z,101634.00
2022-10-28T06:19:59.272Z,101631.00
2022-10-28T06:22:26.039Z,101632.00
2022-10-28T06:24:52.824Z,101638.00
2022-10-28T06:27:19.570Z,101633.00
2022-10-28T06:29:46.308Z,101630.00
2022-10-28T06:32:13.279Z,101630.00
2022-10-28T06:34:40.055Z,101629.00
2022-10-28T06:37:06.835Z,101636.00
2022-10-28T06:39:33.598Z,101634.00
2022-10-28T06:42:00.303Z,101618.00
2022-10-28T06:44:27.106Z,101630.00
2022-10-28T06:46:55.775Z,101629.00
2022-10-28T06:49:22.649Z,101618.00
2022-10-28T06:51:49.997Z,101618.00
2022-10-28T06:54:16.770Z,101613.00
2022-10-28T06:56:45.215Z,101624.00
2022-10-28T06:59:12.052Z,101637.00
2022-10-28T07:01:38.852Z,101635.00
2022-10-28T07:04:07.049Z,101641.00
2022-10-28T07:06:33.810Z,101631.00
2022-10-28T07:09:01.125Z,101635.00
2022-10-28T07:11:28.043Z,101636.00
2022-10-28T07:13:54.985Z,101643.00
2022-10-28T07:16:21.782Z,101640.00
2022-10-28T07:18:48.585Z,101653.00
2022-10-28T07:21:15.392Z,101647.00
2022-10-28T07:23:42.125Z,101646.00
2022-10-28T07:26:08.908Z,101641.00
2022-10-28T07:28:35.814Z,101644.00
2022-10-28T07:31:04.245Z,101639.00
2022-10-28T07:33:31.035Z,101641.00
2022-10-28T07:35:57.947Z,101640.00
2022-10-28T07:38:24.651Z,101645.00
2022-10-28T07:40:51.415Z,101654.00
2022-10-28T07:43:18.126Z,101627.00
2022-10-28T07:45:45.112Z,101633.00
2022-10-28T07:48:11.841Z,101638.00
2022-10-28T07:50:41.416Z,101625.00
2022-10-28T07:53:08.299Z,101631.00
2022-10-28T07:55:35.125Z,101622.00
2022-10-28T07:58:01.886Z,101632.00
2022-10-28T08:00:28.684Z,101635.00
2022-10-28T08:02:55.442Z,101638.00
2022-10-28T08:05:22.244Z,101627.00
2022-10-28T08:07:49.001Z,101622.00
2022-10-28T08:10:15.908Z,101631.00
2022-10-28T08:12:42.943Z,101639.00
2022-10-28T08:15:11.165Z,101644.00
2022-10-28T08:17:37.862Z,101651.00
2022-10-28T08:20:06.400Z,101654.00
2022-10-28T08:22:33.112Z,101662.00
2022-10-28T08:24:59.845Z,101666.00
2022-10-28T08:27:26.592Z,101665.00
2022-10-28T08:29:54.074Z,101658.00
2022-10-28T08:32:20.806Z,101650.00
2022-10-28T08:34:47.563Z,101640.00
2022-10-28T08:37:16.264Z,101644.00
2022-10-28T08:39:43.155Z,101650.00
2022-10-28T08:42:40.364Z,101658.00
2022-10-28T08:45:22.444Z,101654.00
2022-10-28T08:48:07.853Z,101658.00
2022-10-28T08:50:53.053Z,101660.00
2022-10-28T08:53:27.369Z,101648.00
2022-10-28T08:56:07.664Z,101665.00
2022-10-28T08:58:39.066Z,101659.00
2022-10-28T09:01:13.052Z,101656.00
2022-10-28T09:03:45.196Z,101661.00
2022-10-28T09:06:12.184Z,101660.00
2022-10-28T09:08:48.038Z,101659.00
2022-10-28T09:11:51.272Z,101660.00
2022-10-28T09:14:29.648Z,101658.00
2022-10-28T09:17:20.353Z,101668.00
2022-10-28T09:19:59.849Z,101644.00
2022-10-28T09:22:56.618Z,101641.00
2022-10-28T09:25:38.474Z,101632.00
2022-10-28T09:28:57.869Z,101636.00
2022-10-28T09:31:42.284Z,101626.00
2022-10-28T09:34:30.648Z,101621.00
2022-10-28T09:37:24.133Z,101624.00
2022-10-28T09:40:00.136Z,101618.00
2022-10-28T09:42:41.698Z,101622.00
2022-10-28T09:45:25.726Z,101623.00
2022-10-28T09:48:03.066Z,101615.00
2022-10-28T09:50:32.681Z,101623.00
2022-10-28T09:53:39.080Z,101619.00
2022-10-28T09:58:35.769Z,101616.00
2022-10-28T10:01:04.988Z,101612.00
2022-10-28T10:03:32.530Z,101613.00
2022-10-28T10:06:25.881Z,101613.00
2022-10-28T10:08:56.163Z,101606.00
2022-10-28T10:11:38.717Z,101599.00
2022-10-28T10:14:11.968Z,101591.00
2022-10-28T10:16:54.089Z,101601.00
2022-10-28T10:19:20.915Z,101588.00
2022-10-28T10:21:55.896Z,101590.00
2022-10-28T10:24:35.248Z,101601.00
2022-10-28T10:27:11.071Z,101593.00
2022-10-28T10:29:45.324Z,101585.00
2022-10-28T10:32:32.101Z,101591.00
2022-10-28T10:35:19.060Z,101579.00
2022-10-28T10:37:47.903Z,101582.00
2022-10-28T10:40:32.510Z,101576.00
2022-10-28T10:43:17.963Z,101571.00
2022-10-28T10:46:03.591Z,101575.00
2022-10-28T10:48:36.255Z,101569.00
2022-10-28T10:51:27.493Z,101575.00
2022-10-28T10:54:00.920Z,101563.00
2022-10-28T10:56:33.330Z,101563.00
2022-10-28T10:59:05.615Z,101555.00
2022-10-28T11:01:38.966Z,101552.00
2022-10-28T11:04:14.972Z,101549.00
2022-10-28T11:06:44.357Z,101546.00
2022-10-28T11:09:36.283Z,101543.00
2022-10-28T11:12:36.296Z,101543.00
2022-10-28T11:15:22.642Z,101529.00
2022-10-28T11:18:20.729Z,101536.00
2022-10-28T11:21:19.533Z,101539.00
2022-10-28T11:24:33.353Z,101537.00
2022-10-28T11:27:26.444Z,101527.00
2022-10-28T11:29:53.334Z,101544.00
2022-10-28T11:33:29.018Z,101538.00
2022-10-28T11:36:31.798Z,101544.00
2022-10-28T11:39:18.161Z,101537.00
2022-10-28T11:42:16.028Z,101542.00
2022-10-28T11:44:56.091Z,101534.00
2022-10-28T11:48:05.648Z,101533.00
2022-10-28T11:50:59.833Z,101525.00
2022-10-28T11:53:41.979Z,101523.00
2022-10-28T11:56:39.654Z,101523.00
2022-10-28T12:00:00.535Z,101521.00
2022-10-28T12:03:08.166Z,101522.00
2022-10-28T12:05:52.405Z,101522.00
2022-10-28T12:09:08.993Z,101523.00
2022-10-28T12:12:08.116Z,101528.00
2022-10-28T12:14:56.982Z,101519.00
2022-10-28T12:17:40.600Z,101523.00
2022-10-28T12:20:39.416Z,101520.00
2022-10-28T12:23:15.135Z,101512.00
2022-10-28T12:25:47.453Z,101520.00
2022-10-28T12:28:45.373Z,101506.00
2022-10-28T12:31:34.980Z,101516.00
2022-10-28T12:34:09.404Z,101506.00
2022-10-28T12:36:57.464Z,101515.00
2022-10-28T12:39:38.438Z,101506.00
2022-10-28T12:42:16.668Z,101504.00
2022-10-28T12:44:45.924Z,101503.00
2022-10-28T12:47:27.643Z,101492.00
2022-10-28T12:50:28.093Z,101492.00
2022-10-28T12:53:01.864Z,101496.00
2022-10-28T12:55:46.922Z,101488.00
2022-10-28T12:58:28.765Z,101486.00
2022-10-28T13:01:19.221Z,101481.00
2022-10-28T13:03:46.118Z,101485.00
2022-10-28T13:06:53.264Z,101470.00
2022-10-28T13:10:01.414Z,101476.00
2022-10-28T13:12:44.751Z,101483.00
2022-10-28T13:15:46.693Z,101489.00
2022-10-28T13:19:03.548Z,101477.00
2022-10-28T13:22:32.948Z,101479.00
2022-10-28T13:25:42.774Z,101470.00
2022-10-28T13:28:19.313Z,101474.00
2022-10-28T13:30:59.079Z,101474.00
2022-10-28T13:33:29.185Z,101462.00
2022-10-28T13:36:27.211Z,101459.00
2022-10-28T13:38:59.966Z,101463.00
2022-10-28T13:41:35.250Z,101456.00
2022-10-28T13:44:10.970Z,101463.00
2022-10-28T13:46:59.491Z,101462.00
2022-10-28T13:49:29.913Z,101459.00
2022-10-28T13:52:07.998Z,101461.00
2022-10-28T13:54:43.837Z,101459.00
2022-10-28T13:57:30.077Z,101471.00
2022-10-28T14:00:07.358Z,101461.00
2022-10-28T14:02:48.028Z,101462.00
2022-10-28T14:05:19.128Z,101455.00
2022-10-28T14:08:00.161Z,101460.00
2022-10-28T14:10:39.776Z,101454.00
2022-10-28T14:13:20.734Z,101461.00
2022-10-28T14:15:49.898Z,101462.00
2022-10-28T14:21:06.367Z,101451.00
2022-10-28T14:23:33.003Z,101450.00
2022-10-28T14:26:05.791Z,101447.00
2022-10-28T14:28:32.467Z,101444.00
2022-10-28T14:31:08.261Z,101446.00
2022-10-28T14:33:47.822Z,101442.00
2022-10-28T14:36:17.295Z,101444.00
2022-10-28T14:39:23.280Z,101439.00
2022-10-28T14:42:27.241Z,101450.00
2022-10-28T14:45:27.630Z,101444.00
2022-10-28T14:48:44.445Z,101450.00
2022-10-28T14:51:17.222Z,101449.00
2022-10-28T14:53:46.382Z,101439.00
2022-10-28T14:58:52.549Z,101432.00
2022-10-28T15:01:54.604Z,101436.00
2022-10-28T15:04:22.049Z,101438.00
2022-10-28T15:06:51.560Z,101442.00
2022-10-28T15:09:21.651Z,101436.00
2022-10-28T15:12:04.740Z,101436.00
2022-10-28T15:14:37.888Z,101426.00
2022-10-28T15:17:26.561Z,101437.00
2022-10-28T15:19:59.633Z,101435.00
2022-10-28T15:22:30.791Z,101431.00
2022-10-28T15:25:04.526Z,101428.00
2022-10-28T15:27:38.878Z,101429.00
2022-10-28T15:30:18.961Z,101434.00
2022-10-28T15:32:45.719Z,101436.00
2022-10-28T15:35:31.054Z,101435.00
2022-10-28T15:38:01.355Z,101428.00
2022-10-28T15:40:32.618Z,101421.00
2022-10-28T15:43:03.061Z,101430.00
2022-10-28T15:45:36.079Z,101429.00
2022-10-28T15:48:14.488Z,101429.00
2022-10-28T15:50:41.610Z,101429.00
2022-10-28T15:53:11.070Z,101427.00
2022-10-28T15:56:07.082Z,101426.00
2022-10-28T15:58:33.641Z,101422.00
2022-10-28T16:01:00.561Z,101424.00
2022-10-28T16:03:40.700Z,101427.00
2022-10-28T16:06:33.586Z,101427.00
2022-10-28T16:09:29.095Z,101426.00
2022-10-28T16:12:01.621Z,101418.00
2022-10-28T16:14:38.140Z,101415.00
2022-10-28T16:17:20.051Z,101414.00
2022-10-28T16:19:59.027Z,101422.00
2022-10-28T16:22:28.869Z,101411.00
2022-10-28T16:24:56.285Z,101415.00
2022-10-28T16:27:31.118Z,101411.00
2022-10-28T16:29:58.176Z,101411.00
2022-10-28T16:32:40.737Z,101413.00
2022-10-28T16:35:21.253Z,101415.00
2022-10-28T16:37:54.617Z,101420.00
2022-10-28T16:40:51.078Z,101417.00
2022-10-28T16:43:19.895Z,101426.00
2022-10-28T16:45:48.462Z,101424.00
2022-10-28T16:48:17.419Z,101425.00
2022-10-28T16:51:13.593Z,101423.00
2022-10-28T16:53:42.628Z,101413.00
2022-10-28T16:56:13.852Z,101415.00
2022-10-28T16:58:42.883Z,101410.00
2022-10-28T17:01:11.721Z,101422.00
2022-10-28T17:03:38.623Z,101420.00
2022-10-28T17:06:05.595Z,101412.00
2022-10-28T17:08:57.021Z,101408.00
2022-10-28T17:11:19.495Z,101422.00
2022-10-28T17:13:46.309Z,101412.00
2022-10-28T17:16:13.191Z,101405.00
2022-10-28T17:18:40.275Z,101410.00
2022-10-28T17:21:06.986Z,101412.00
2022-10-28T17:23:33.707Z,101422.00
2022-10-28T17:26:02.712Z,101421.00
2022-10-28T17:28:29.916Z,101429.00
2022-10-28T17:31:05.977Z,101440.00
2022-10-28T17:33:33.893Z,101429.00
2022-10-28T17:36:02.626Z,101427.00
2022-10-28T17:38:30.605Z,101429.00
2022-10-28T17:40:58.134Z,101418.00
2022-10-28T17:43:25.279Z,101418.00
2022-10-28T17:45:52.133Z,101424.00
2022-10-28T17:48:18.853Z,101418.00
2022-10-28T17:50:55.003Z,101423.00
2022-10-28T17:53:22.191Z,101410.00
2022-10-28T17:55:59.586Z,101413.00
2022-10-28T17:58:27.234Z,101414.00
2022-10-28T18:01:02.320Z,101418.00
2022-10-28T18:03:34.051Z,101422.00
2022-10-28T18:06:07.217Z,101418.00
2022-10-28T18:08:37.199Z,101420.00
2022-10-28T18:11:06.116Z,101418.00
2022-10-28T18:13:36.045Z,101433.00
2022-10-28T18:16:19.889Z,101427.00
2022-10-28T18:18:46.804Z,101425.00
2022-10-28T18:21:14.568Z,101430.00
2022-10-28T18:23:41.887Z,101417.00
2022-10-28T18:26:13.942Z,101421.00
2022-10-28T18:28:43.307Z,101414.00
2022-10-28T18:31:12.709Z,101415.00
2022-10-28T18:33:40.062Z,101415.00
2022-10-28T18:36:19.859Z,101414.00
2022-10-28T18:38:48.420Z,101422.00
2022-10-28T18:41:21.714Z,101420.00
2022-10-28T18:43:52.906Z,101417.00
2022-10-28T18:46:19.996Z,101419.00
2022-10-28T18:48:46.913Z,101424.00
2022-10-28T18:51:14.249Z,101419.00
2022-10-28T18:53:44.911Z,101422.00
2022-10-28T18:56:21.742Z,101417.00
2022-10-28T18:58:52.304Z,101412.00
2022-10-28T19:01:28.300Z,101414.00
2022-10-28T19:03:58.488Z,101413.00
2022-10-28T19:06:32.546Z,101417.00
2022-10-28T19:09:03.111Z,101417.00
2022-10-28T19:11:32.104Z,101408.00
2022-10-28T19:14:01.996Z,101419.00
2022-10-28T19:16:30.568Z,101418.00
2022-10-28T19:18:59.173Z,101414.00
2022-10-28T19:21:27.799Z,101416.00
2022-10-28T19:23:55.003Z,101418.00
2022-10-28T19:26:23.026Z,101413.00
2022-10-28T19:28:51.454Z,101417.00
2022-10-28T19:31:21.948Z,101433.00
2022-10-28T19:33:48.763Z,101423.00
2022-10-28T19:36:18.988Z,101418.00
2022-10-28T19:38:48.111Z,101426.00
2022-10-28T19:41:21.679Z,101423.00
2022-10-28T19:43:49.755Z,101420.00
2022-10-28T19:46:21.011Z,101419.00
2022-10-28T19:48:53.579Z,101432.00
2022-10-28T19:51:27.301Z,101431.00
2022-10-28T19:54:02.522Z,101430.00
2022-10-28T19:56:31.547Z,101428.00
2022-10-28T19:59:01.384Z,101429.00
2022-10-28T20:01:35.297Z,101431.00
2022-10-28T20:04:02.765Z,101441.00
2022-10-28T20:06:38.877Z,101443.00
2022-10-28T20:09:06.820Z,101445.00
2022-10-28T20:11:37.661Z,101450.00
2022-10-28T20:14:11.630Z,101457.00
2022-10-28T20:16:42.430Z,101452.00
2022-10-28T20:19:09.721Z,101450.00
2022-10-28T20:21:37.577Z,101452.00
2022-10-28T20:24:07.800Z,101445.00
2022-10-28T20:26:37.182Z,101451.00
2022-10-28T20:29:06.924Z,101463.00
2022-10-28T20:31:34.192Z,101467.00
2022-10-28T20:34:03.942Z,101457.00
2022-10-28T20:36:44.133Z,101466.00
2022-10-28T20:39:15.682Z,101459.00
2022-10-28T20:41:45.711Z,101460.00
2022-10-28T20:44:12.900Z,101461.00
2022-10-28T20:46:40.451Z,101464.00
2022-10-28T20:49:08.697Z,101458.00
2022-10-28T20:51:36.114Z,101465.00
2022-10-28T20:54:03.316Z,101462.00
2022-10-28T20:56:36.403Z,101458.00
2022-10-28T20:59:04.029Z,101469.00
2022-10-28T21:01:40.363Z,101464.00
2022-10-28T21:04:10.593Z,101464.00
2022-10-28T21:06:38.881Z,101464.00
2022-10-28T21:09:06.229Z,101468.00
2022-10-28T21:11:33.380Z,101470.00
2022-10-28T21:14:01.577Z,101474.00
2022-10-28T21:16:29.632Z,101474.00
2022-10-28T21:18:56.483Z,101465.00
2022-10-28T21:21:24.229Z,101474.00
2022-10-28T21:23:51.617Z,101472.00
2022-10-28T21:26:18.878Z,101481.00
2022-10-28T21:28:52.677Z,101470.00
2022-10-28T21:31:20.928Z,101470.00
2022-10-28T21:36:22.175Z,101472.00
2022-10-28T21:38:52.806Z,101463.00
2022-10-28T21:41:21.602Z,101461.00
2022-10-28T21:43:51.972Z,101462.00
2022-10-28T21:46:21.336Z,101474.00
2022-10-28T21:48:48.645Z,101474.00
2022-10-28T21:51:17.055Z,101472.00
2022-10-28T21:53:45.319Z,101474.00
2022-10-28T21:56:19.333Z,101465.00
2022-10-28T21:58:49.250Z,101467.00
2022-10-28T22:01:23.628Z,101475.00
2022-10-28T22:03:52.247Z,101478.00
2022-10-28T22:06:19.023Z,101471.00
2022-10-28T22:08:46.861Z,101465.00
2022-10-28T22:11:20.004Z,101462.00
2022-10-28T22:13:48.807Z,101464.00
2022-10-28T22:16:17.812Z,101466.00
2022-10-28T22:18:45.664Z,101468.00
2022-10-28T22:21:18.607Z,101480.00
2022-10-28T22:23:45.849Z,101488.00
2022-10-28T22:26:22.729Z,101480.00
2022-10-28T22:28:50.865Z,101474.00
2022-10-28T22:31:21.541Z,101484.00
2022-10-28T22:33:48.831Z,101488.00
2022-10-28T22:36:22.654Z,101484.00
2022-10-28T22:38:50.235Z,101483.00
2022-10-28T22:41:39.460Z,101488.00
2022-10-28T22:44:07.385Z,101487.00
2022-10-28T22:46:36.536Z,101492.00
2022-10-28T22:49:04.223Z,101481.00
2022-10-28T22:51:32.016Z,101491.00
2022-10-28T22:53:58.957Z,101484.00
2022-10-28T22:56:27.400Z,101494.00
2022-10-28T22:59:02.085Z,101490.00
2022-10-28T23:01:29.751Z,101491.00
2022-10-28T23:03:56.749Z,101502.00
2022-10-28T23:06:26.666Z,101509.00
2022-10-28T23:08:54.516Z,101511.00
2022-10-28T23:11:22.844Z,101512.00
2022-10-28T23:13:54.480Z,101512.00
2022-10-28T23:16:23.012Z,101520.00
2022-10-28T23:18:50.294Z,101528.00
2022-10-28T23:21:20.663Z,101529.00
2022-10-28T23:23:53.938Z,101520.00
2022-10-28T23:26:21.410Z,101519.00
2022-10-28T23:28:52.684Z,101507.00
2022-10-28T23:31:20.487Z,101515.00
2022-10-28T23:33:47.634Z,101518.00
2022-10-28T23:36:16.200Z,101515.00
2022-10-28T23:38:43.055Z,101533.00
2022-10-28T23:41:15.701Z,101521.00
2022-10-28T23:43:42.906Z,101513.00
2022-10-28T23:46:10.237Z,101518.00
2022-10-28T23:48:37.337Z,101507.00
2022-10-28T23:51:04.375Z,101512.00
2022-10-28T23:53:31.505Z,101510.00
2022-10-28T23:55:59.257Z,101507.00
2022-10-28T23:58:26.081Z,101510.00
